createdAt,value
2023-03-23T15:58:48.883Z,48.60
2023-03-23T16:01:22.668Z,48.60
2023-03-23T16:03:55.754Z,48.40
2023-03-23T16:06:26.458Z,49.30
2023-03-23T16:08:54.668Z,47.40
2023-03-23T16:11:23.421Z,47.60
2023-03-23T16:13:50.738Z,47.00
2023-03-23T16:16:22.312Z,45.10
2023-03-23T16:18:49.212Z,44.50
2023-03-23T16:21:16.007Z,43.50
2023-03-23T16:23:44.705Z,45.00
2023-03-23T16:26:11.821Z,46.70
2023-03-23T16:28:39.669Z,48.10
2023-03-23T16:31:06.732Z,49.10
2023-03-23T16:33:33.609Z,49.40
2023-03-23T16:36:00.831Z,49.80
2023-03-23T16:38:27.823Z,50.50
2023-03-23T16:40:54.878Z,51.10
2023-03-23T16:43:22.200Z,51.60
2023-03-23T16:45:49.380Z,52.10
2023-03-23T16:48:17.388Z,52.60
2023-03-23T16:50:44.846Z,52.70
2023-03-23T16:53:12.082Z,53.10
2023-03-23T16:55:39.613Z,54.40
2023-03-23T16:58:16.231Z,53.70
2023-03-23T17:00:46.872Z,55.00
2023-03-23T17:03:13.732Z,54.30
2023-03-23T17:05:41.088Z,54.50
2023-03-23T17:08:07.873Z,54.90
2023-03-23T17:10:34.651Z,55.50
2023-03-23T17:13:01.973Z,55.90
2023-03-23T17:15:29.952Z,56.40
2023-03-23T17:17:56.750Z,56.80
2023-03-23T17:20:23.965Z,58.40
2023-03-23T17:22:50.720Z,57.90
2023-03-23T17:25:17.730Z,59.40
2023-03-23T17:27:44.505Z,59.10
2023-03-23T17:30:11.950Z,59.70
2023-03-23T17:32:39.095Z,60.30
2023-03-23T17:35:07.145Z,60.80
2023-03-23T17:37:34.533Z,61.30
2023-03-23T17:40:01.517Z,62.40
2023-03-23T17:42:29.780Z,62.20
2023-03-23T17:44:56.481Z,62.80
2023-03-23T17:47:24.085Z,64.00
2023-03-23T17:49:51.324Z,64.00
2023-03-23T17:52:18.099Z,65.40
2023-03-23T17:54:44.928Z,66.10
2023-03-23T17:57:11.701Z,66.00
2023-03-23T17:59:38.623Z,67.10
2023-03-23T18:02:06.255Z,68.10
2023-03-23T18:04:33.044Z,68.80
2023-03-23T18:06:59.906Z,69.40
2023-03-23T18:09:26.682Z,70.10
2023-03-23T18:11:53.528Z,70.50
2023-03-23T18:14:20.876Z,71.20
2023-03-23T18:16:48.328Z,71.90
2023-03-23T18:19:15.582Z,72.70
2023-03-23T18:21:45.303Z,73.70
2023-03-23T18:24:13.267Z,75.00
2023-03-23T18:26:40.123Z,76.40
2023-03-23T18:29:06.914Z,77.40
2023-03-23T18:31:34.145Z,79.80
2023-03-23T18:34:01.195Z,81.00
2023-03-23T18:36:28.590Z,82.70
2023-03-23T18:38:57.143Z,84.50
2023-03-23T18:41:24.715Z,86.30
2023-03-23T18:43:51.955Z,88.10
2023-03-23T18:46:18.795Z,90.00
2023-03-23T18:48:45.637Z,90.40
2023-03-23T18:51:12.531Z,91.00
2023-03-23T18:53:39.563Z,91.90
2023-03-23T18:56:13.192Z,91.90
2023-03-23T18:58:40.242Z,92.40
2023-03-23T19:01:10.031Z,92.70
2023-03-23T19:03:38.508Z,93.00
2023-03-23T19:06:06.326Z,93.30
2023-03-23T19:08:34.967Z,93.90
2023-03-23T19:11:04.433Z,93.90
2023-03-23T19:13:34.112Z,94.20
2023-03-23T19:16:01.281Z,94.50
2023-03-23T19:18:28.345Z,94.80
2023-03-23T19:21:13.353Z,95.10
2023-03-23T19:23:42.237Z,95.80
2023-03-23T19:26:09.869Z,96.50
2023-03-23T19:31:07.424Z,97.50
2023-03-23T19:33:34.151Z,97.80
2023-03-23T19:36:11.052Z,98.20
2023-03-23T19:38:40.012Z,98.30
2023-03-23T19:41:07.453Z,98.60
2023-03-23T19:43:34.552Z,98.60
2023-03-23T19:46:01.769Z,99.10
2023-03-23T19:48:30.123Z,99.30
2023-03-23T19:50:57.576Z,99.60
2023-03-23T19:53:26.517Z,99.80
2023-03-23T19:55:53.618Z,99.90
2023-03-23T19:58:20.924Z,99.90
2023-03-23T20:00:48.629Z,99.90
2023-03-23T20:03:16.815Z,99.90
2023-03-23T20:05:44.118Z,99.90
2023-03-23T20:08:11.441Z,99.90
2023-03-23T20:10:40.661Z,99.90
2023-03-23T20:13:08.562Z,99.90
2023-03-23T20:15:35.324Z,99.90
2023-03-23T20:18:02.444Z,99.90
2023-03-23T20:20:29.773Z,99.90
2023-03-23T20:22:57.984Z,99.90
2023-03-23T20:25:25.966Z,99.90
2023-03-23T20:27:53.031Z,99.90
2023-03-23T20:30:21.449Z,99.90
2023-03-23T20:32:48.216Z,99.90
2023-03-23T20:35:16.253Z,99.90
2023-03-23T20:37:44.513Z,99.90
2023-03-23T20:40:16.549Z,99.90
2023-03-23T20:42:44.073Z,99.90
2023-03-23T20:45:13.380Z,99.90
2023-03-23T20:47:41.053Z,99.90
2023-03-23T20:50:09.603Z,99.90
2023-03-23T20:52:36.958Z,99.90
2023-03-23T20:55:04.620Z,99.90
2023-03-23T20:57:31.505Z,99.90
2023-03-23T20:59:58.856Z,99.90
2023-03-23T21:02:26.079Z,99.90
2023-03-23T21:04:53.202Z,99.90
2023-03-23T21:07:23.102Z,99.90
2023-03-23T21:09:50.106Z,99.90
2023-03-23T21:12:17.001Z,99.90
2023-03-23T21:14:45.043Z,99.90
2023-03-23T21:17:12.249Z,99.90
2023-03-23T21:19:39.286Z,99.90
2023-03-23T21:22:07.132Z,99.90
2023-03-23T21:24:37.381Z,99.90
2023-03-23T21:27:05.356Z,99.90
2023-03-23T21:29:32.692Z,99.90
2023-03-23T21:34:30.053Z,99.90
2023-03-23T21:37:03.295Z,99.90
2023-03-23T21:39:30.369Z,99.90
2023-03-23T21:41:59.347Z,99.90
2023-03-23T21:44:26.341Z,99.90
2023-03-23T21:46:54.603Z,99.90
2023-03-23T21:49:21.643Z,99.90
2023-03-23T21:51:49.475Z,99.90
2023-03-23T21:54:16.201Z,99.90
2023-03-23T21:56:43.081Z,99.90
2023-03-23T21:59:09.858Z,99.90
2023-03-23T22:01:37.420Z,99.90
2023-03-23T22:04:05.035Z,99.90
2023-03-23T22:06:34.331Z,99.90
2023-03-23T22:09:05.573Z,99.90
2023-03-23T22:11:32.820Z,99.90
2023-03-23T22:14:00.166Z,99.90
2023-03-23T22:16:26.981Z,99.90
2023-03-23T22:18:55.514Z,99.90
2023-03-23T22:21:26.018Z,99.90
2023-03-23T22:23:55.311Z,99.90
2023-03-23T22:26:22.396Z,99.90
2023-03-23T22:28:51.073Z,99.90
2023-03-23T22:31:21.978Z,99.90
2023-03-23T22:33:50.341Z,99.90
2023-03-23T22:36:17.635Z,99.90
2023-03-23T22:38:46.598Z,99.90
2023-03-23T22:41:18.265Z,99.90
2023-03-23T22:43:45.558Z,99.90
2023-03-23T22:46:12.359Z,99.90
2023-03-23T22:48:39.191Z,99.90
2023-03-23T22:51:06.658Z,99.90
2023-03-23T22:53:33.582Z,99.90
2023-03-23T22:56:01.203Z,99.90
2023-03-23T22:58:28.949Z,99.90
2023-03-23T23:01:01.623Z,99.90
2023-03-23T23:03:29.747Z,99.90
2023-03-23T23:05:58.528Z,99.90
2023-03-23T23:08:27.270Z,99.90
2023-03-23T23:10:56.255Z,99.90
2023-03-23T23:13:23.860Z,99.90
2023-03-23T23:15:53.560Z,99.90
2023-03-23T23:18:20.997Z,99.90
2023-03-23T23:20:53.353Z,99.90
2023-03-23T23:23:20.846Z,99.90
2023-03-23T23:25:48.652Z,99.90
2023-03-23T23:28:16.112Z,99.90
2023-03-23T23:30:43.279Z,99.90
2023-03-23T23:33:10.182Z,99.90
2023-03-23T23:35:38.229Z,99.90
2023-03-23T23:38:06.682Z,99.90
2023-03-23T23:40:35.368Z,99.90
2023-03-23T23:43:03.474Z,99.90
2023-03-23T23:45:31.557Z,99.90
2023-03-23T23:47:58.529Z,99.90
2023-03-23T23:50:25.821Z,99.90
2023-03-23T23:52:52.591Z,99.90
2023-03-23T23:55:20.570Z,99.90
2023-03-23T23:57:48.643Z,99.90
